Time;durP1;ratioP1;P1;durP2;ratioP2;P2;SDS_P1;SDS_P2;PMS_P1;PMS_P2;Temp;Humidity;BMP_temperature;BMP_pressure;BME280_temperature;BME280_humidity;BME280_pressure;Samples;Min_cycle;Max_cycle;Signal;HPM_P1;HPM_P2
2021/11/28 00:02:18;;;;;;;6.22;3.28;;;7.70;97.80;;;;;;5026080;28;20091;-48
2021/11/28 00:04:45;;;;;;;6.75;3.47;;;7.80;97.80;;;;;;5011310;28;20022;-48
2021/11/28 00:11:02;;;;;;;7.00;3.35;;;7.80;97.80;;;;;;4971331;28;20033;-48
2021/11/28 00:13:11;;;;;;;7.28;3.60;;;7.80;97.80;;;;;;5017014;28;20500;-48
2021/11/28 00:15:38;;;;;;;5.45;3.08;;;7.80;97.80;;;;;;5032954;28;20365;-48
2021/11/28 00:18:07;;;;;;;5.68;2.83;;;7.80;97.80;;;;;;5023702;28;20520;-48
2021/11/28 00:20:33;;;;;;;5.90;2.97;;;7.80;97.80;;;;;;5014728;28;20026;-48
2021/11/28 00:22:59;;;;;;;7.53;3.63;;;7.80;97.80;;;;;;5014688;28;20084;-48
2021/11/28 00:25:26;;;;;;;4.20;2.75;;;7.80;97.90;;;;;;5014237;28;20034;-48
2021/11/28 00:27:51;;;;;;;7.63;3.15;;;7.80;97.80;;;;;;5015541;28;20029;-48
2021/11/28 00:30:24;;;;;;;7.53;3.20;;;7.80;97.80;;;;;;5016614;28;20087;-48
2021/11/28 00:32:50;;;;;;;5.55;3.05;;;7.80;97.80;;;;;;5034382;28;20380;-48
2021/11/28 00:35:16;;;;;;;7.22;3.72;;;7.80;97.80;;;;;;5033538;28;20484;-48
2021/11/28 00:37:41;;;;;;;5.45;2.67;;;7.70;97.80;;;;;;5034128;28;20026;-48
2021/11/28 00:40:07;;;;;;;3.35;2.30;;;7.70;97.80;;;;;;5032540;28;20025;-48
2021/11/28 00:42:33;;;;;;;6.13;3.33;;;7.80;97.90;;;;;;5034228;28;20555;-48
2021/11/28 00:44:59;;;;;;;4.95;3.10;;;7.80;97.80;;;;;;5033397;28;20113;-48
2021/11/28 00:47:25;;;;;;;10.07;3.60;;;7.70;97.80;;;;;;5032821;28;20124;-48
2021/11/28 00:50:06;;;;;;;8.10;3.83;;;7.80;97.90;;;;;;5022938;28;20087;-48
2021/11/28 00:52:33;;;;;;;4.70;2.72;;;7.80;97.80;;;;;;5012772;28;20129;-48
2021/11/28 00:55:00;;;;;;;10.05;3.35;;;7.80;97.80;;;;;;5013474;28;20097;-48
2021/11/28 00:57:27;;;;;;;7.93;3.85;;;7.80;97.90;;;;;;5014585;28;20441;-48
2021/11/28 00:59:53;;;;;;;7.97;2.95;;;7.70;97.80;;;;;;5014663;28;20318;-48
2021/11/28 01:02:19;;;;;;;5.22;3.10;;;7.70;97.80;;;;;;5030068;28;20021;-48
2021/11/28 01:04:46;;;;;;;7.55;3.38;;;7.70;97.80;;;;;;5033653;28;20033;-48
2021/11/28 01:07:12;;;;;;;9.43;3.65;;;7.80;97.80;;;;;;5033307;28;20085;-48
2021/11/28 01:09:38;;;;;;;5.85;2.70;;;7.70;97.80;;;;;;5033789;28;20095;-48
2021/11/28 01:12:06;;;;;;;8.23;3.45;;;7.80;97.90;;;;;;5031769;28;20045;-48
2021/11/28 01:14:32;;;;;;;8.85;3.15;;;7.80;97.80;;;;;;5033106;28;20364;-48
2021/11/28 01:16:58;;;;;;;9.85;3.72;;;7.80;97.80;;;;;;5030995;28;20029;-48
2021/11/28 01:19:23;;;;;;;11.45;4.45;;;7.70;97.80;;;;;;5019814;28;20152;-49
2021/11/28 01:22:04;;;;;;;6.70;3.50;;;7.70;97.80;;;;;;5013327;28;20033;-48
2021/11/28 01:24:30;;;;;;;7.10;3.70;;;7.70;97.80;;;;;;5013837;28;20447;-48
2021/11/28 01:26:57;;;;;;;10.30;3.55;;;7.80;97.90;;;;;;5012934;28;20021;-49
2021/11/28 01:29:22;;;;;;;5.97;3.25;;;7.70;97.80;;;;;;5014665;28;20353;-49
2021/11/28 01:31:48;;;;;;;6.95;3.10;;;7.80;97.80;;;;;;5023509;28;20480;-49
2021/11/28 01:34:14;;;;;;;7.28;2.90;;;7.70;97.80;;;;;;5032830;28;20361;-48
2021/11/28 01:36:40;;;;;;;11.38;3.83;;;7.70;97.80;;;;;;5032285;28;20041;-48
2021/11/28 01:39:08;;;;;;;5.25;2.78;;;7.70;97.80;;;;;;5031205;28;20476;-49
2021/11/28 01:41:35;;;;;;;9.10;3.75;;;7.70;97.80;;;;;;5033769;28;20299;-49
2021/11/28 01:44:01;;;;;;;6.25;3.10;;;7.80;97.90;;;;;;5033370;28;20036;-48
2021/11/28 01:46:27;;;;;;;5.07;3.22;;;7.70;97.90;;;;;;5031136;28;20109;-48
2021/11/28 01:48:54;;;;;;;8.98;3.70;;;7.70;97.90;;;;;;5027109;28;20384;-48
2021/11/28 01:51:20;;;;;;;6.63;3.35;;;7.70;97.90;;;;;;5013325;28;20057;-48
2021/11/28 01:53:49;;;;;;;8.95;3.13;;;7.70;97.90;;;;;;5013415;28;20108;-48
2021/11/28 01:56:15;;;;;;;5.97;3.35;;;7.70;97.90;;;;;;5012570;28;20200;-48
2021/11/28 01:58:41;;;;;;;4.90;3.15;;;7.70;97.90;;;;;;5012975;28;20121;-49
2021/11/28 02:01:10;;;;;;;3.63;2.55;;;7.80;98.00;;;;;;5016431;28;20120;-49
2021/11/28 02:03:39;;;;;;;6.15;2.88;;;7.70;97.90;;;;;;5032793;28;20022;-48
2021/11/28 02:06:06;;;;;;;7.03;2.90;;;7.70;97.90;;;;;;5032117;28;20056;-48
2021/11/28 02:08:32;;;;;;;7.00;2.90;;;7.80;97.90;;;;;;5032696;28;20531;-48
2021/11/28 02:10:58;;;;;;;11.55;3.10;;;7.80;97.90;;;;;;5030724;28;20163;-48
2021/11/28 02:13:25;;;;;;;6.40;3.55;;;7.80;98.00;;;;;;5032874;28;20025;-49
2021/11/28 02:15:52;;;;;;;5.68;2.70;;;7.70;97.90;;;;;;5030788;28;20025;-48
2021/11/28 02:18:18;;;;;;;6.85;3.13;;;7.70;97.90;;;;;;5011934;28;20069;-48
2021/11/28 02:20:49;;;;;;;4.03;2.45;;;7.70;97.90;;;;;;5015904;28;20053;-49
2021/11/28 02:23:15;;;;;;;7.68;3.00;;;7.80;98.00;;;;;;5032623;28;20034;-48
2021/11/28 02:25:42;;;;;;;6.03;3.00;;;7.80;97.90;;;;;;5031645;28;20026;-48
2021/11/28 02:28:08;;;;;;;5.45;2.58;;;7.70;97.90;;;;;;5029739;28;20065;-49
2021/11/28 02:30:34;;;;;;;5.07;2.95;;;7.70;97.90;;;;;;5012136;28;20072;-49
2021/11/28 02:33:00;;;;;;;7.80;3.40;;;7.80;97.90;;;;;;5026527;28;20041;-48
2021/11/28 02:35:30;;;;;;;5.95;2.83;;;7.80;97.90;;;;;;5031237;28;20352;-49
2021/11/28 02:37:56;;;;;;;5.25;2.97;;;7.80;97.90;;;;;;5032689;28;20087;-49
2021/11/28 02:40:25;;;;;;;4.40;2.47;;;7.80;97.90;;;;;;5030590;28;20029;-49
2021/11/28 02:42:53;;;;;;;8.70;2.55;;;7.80;98.00;;;;;;5018365;28;20453;-48
2021/11/28 02:45:23;;;;;;;4.28;2.20;;;7.80;98.00;;;;;;5011581;28;20084;-49
2021/11/28 02:47:49;;;;;;;3.95;2.35;;;7.80;97.90;;;;;;5024943;28;20079;-48
2021/11/28 02:50:17;;;;;;;3.42;2.17;;;7.80;97.90;;;;;;5020945;28;20037;-48
2021/11/28 02:52:46;;;;;;;6.95;2.38;;;7.80;97.90;;;;;;5012039;28;20168;-49
2021/11/28 02:55:12;;;;;;;5.18;1.80;;;7.80;97.90;;;;;;5011649;28;20160;-48
2021/11/28 02:57:37;;;;;;;7.18;2.95;;;7.80;97.90;;;;;;5011403;28;20033;-48
2021/11/28 03:00:07;;;;;;;5.35;2.92;;;7.80;97.90;;;;;;4995149;28;20109;-49
2021/11/28 03:02:37;;;;;;;4.20;2.08;;;7.80;97.90;;;;;;5021538;28;20695;-48
2021/11/28 03:05:03;;;;;;;4.15;2.58;;;7.80;97.90;;;;;;5031236;28;20044;-49
2021/11/28 03:07:29;;;;;;;4.05;2.30;;;7.80;98.00;;;;;;5032113;28;20029;-48
2021/11/28 03:09:54;;;;;;;6.18;2.50;;;7.80;97.90;;;;;;5031640;28;20025;-48
2021/11/28 03:12:20;;;;;;;5.05;2.25;;;7.80;97.90;;;;;;5029859;28;20072;-49
2021/11/28 03:14:46;;;;;;;4.28;2.42;;;7.80;97.90;;;;;;5031270;28;20064;-48
2021/11/28 03:17:11;;;;;;;3.28;2.42;;;7.80;98.00;;;;;;5029013;28;20452;-48
2021/11/28 03:19:39;;;;;;;2.70;1.45;;;7.80;97.90;;;;;;5031954;28;20101;-49
2021/11/28 03:22:05;;;;;;;4.32;2.45;;;7.80;98.00;;;;;;5029004;28;20108;-48
2021/11/28 03:24:30;;;;;;;4.60;1.90;;;7.80;97.90;;;;;;5031461;28;20104;-49
2021/11/28 03:26:56;;;;;;;2.85;2.03;;;7.80;97.90;;;;;;5030592;28;20025;-49
2021/11/28 03:29:23;;;;;;;4.55;1.75;;;7.80;97.90;;;;;;5021841;28;20420;-48
2021/11/28 03:32:09;;;;;;;3.90;2.33;;;7.80;98.00;;;;;;5012862;28;20359;-49
2021/11/28 03:34:35;;;;;;;3.05;1.67;;;7.80;97.90;;;;;;4947519;28;20411;-48
2021/11/28 03:37:01;;;;;;;2.47;1.90;;;7.80;97.90;;;;;;4949401;29;20031;-48
2021/11/28 03:39:29;;;;;;;4.25;1.80;;;7.80;97.90;;;;;;4955773;28;20090;-48
2021/11/28 03:41:59;;;;;;;10.35;1.77;;;7.80;97.90;;;;;;4969558;28;20035;-48
2021/11/28 03:44:26;;;;;;;5.85;1.27;;;7.80;97.90;;;;;;4969331;28;20035;-48
2021/11/28 03:46:53;;;;;;;2.03;1.58;;;7.80;97.90;;;;;;4967610;28;20398;-48
2021/11/28 03:49:18;;;;;;;3.58;1.90;;;7.80;97.90;;;;;;4968031;28;20410;-49
2021/11/28 03:51:44;;;;;;;2.78;1.90;;;7.80;97.90;;;;;;4950554;28;20023;-48
2021/11/28 03:54:10;;;;;;;2.42;1.58;;;7.80;97.90;;;;;;4949829;29;20537;-48
2021/11/28 03:56:36;;;;;;;5.82;1.50;;;7.80;97.90;;;;;;4949548;29;20459;-48
2021/11/28 03:59:02;;;;;;;3.20;1.67;;;7.80;97.90;;;;;;4949859;29;20105;-49
2021/11/28 04:01:28;;;;;;;3.33;1.70;;;7.80;97.90;;;;;;4950616;28;20067;-48
2021/11/28 04:03:53;;;;;;;2.67;1.85;;;7.80;97.90;;;;;;4966007;28;20716;-48
2021/11/28 04:06:22;;;;;;;2.67;1.48;;;7.80;97.90;;;;;;5017841;28;20414;-49
2021/11/28 04:08:47;;;;;;;3.90;1.77;;;7.80;97.90;;;;;;5030738;28;20113;-48
2021/11/28 04:11:13;;;;;;;3.55;1.70;;;7.80;97.90;;;;;;5028888;28;20128;-48
2021/11/28 04:13:39;;;;;;;4.15;1.63;;;7.80;97.90;;;;;;5030383;28;20033;-49
2021/11/28 04:16:05;;;;;;;4.47;1.80;;;7.80;98.00;;;;;;5029840;28;20448;-49
2021/11/28 04:18:30;;;;;;;3.55;1.80;;;7.80;97.90;;;;;;5029485;28;20026;-49
2021/11/28 04:20:56;;;;;;;3.42;1.88;;;7.80;97.90;;;;;;5030554;28;20083;-48
2021/11/28 04:23:22;;;;;;;2.47;1.52;;;7.80;97.90;;;;;;5028254;28;20072;-48
2021/11/28 04:25:48;;;;;;;2.53;1.88;;;7.80;97.90;;;;;;5030236;28;20025;-48
2021/11/28 04:28:14;;;;;;;3.50;2.22;;;7.80;97.90;;;;;;5030797;28;20036;-48
2021/11/28 04:30:40;;;;;;;2.33;1.40;;;7.80;97.90;;;;;;5020903;28;20052;-48
2021/11/28 04:33:06;;;;;;;4.35;2.08;;;7.80;97.90;;;;;;5029310;28;20120;-48
2021/11/28 04:35:32;;;;;;;3.38;1.90;;;7.80;97.90;;;;;;5030093;28;20056;-48
2021/11/28 04:37:58;;;;;;;8.98;2.25;;;7.80;97.90;;;;;;5030216;28;20061;-48
2021/11/28 04:40:24;;;;;;;6.38;1.45;;;7.80;97.90;;;;;;5028392;28;20022;-48
2021/11/28 04:42:50;;;;;;;3.63;1.77;;;7.80;97.90;;;;;;5030381;28;20037;-49
2021/11/28 04:45:15;;;;;;;1.92;1.55;;;7.80;98.20;;;;;;5029626;28;20208;-49
2021/11/28 04:47:41;;;;;;;9.13;2.25;;;7.80;97.90;;;;;;5025095;28;20033;-49
2021/11/28 04:50:10;;;;;;;3.60;1.83;;;7.80;97.90;;;;;;5014612;28;20032;-48
2021/11/28 04:52:36;;;;;;;3.83;1.70;;;7.80;97.90;;;;;;5031396;28;20352;-48
2021/11/28 04:55:03;;;;;;;8.60;1.95;;;7.80;97.90;;;;;;5033120;28;20456;-49
2021/11/28 04:57:29;;;;;;;7.90;1.67;;;7.80;97.90;;;;;;5033639;28;20100;-48
2021/11/28 04:59:54;;;;;;;4.95;2.40;;;7.80;97.90;;;;;;5033808;28;20121;-49
2021/11/28 05:02:20;;;;;;;4.40;1.63;;;7.80;97.90;;;;;;5031877;28;20057;-48
2021/11/28 05:04:46;;;;;;;2.28;1.50;;;7.80;97.90;;;;;;5033306;28;20033;-48
2021/11/28 05:07:11;;;;;;;3.78;1.50;;;7.80;97.90;;;;;;5033438;28;20036;-48
2021/11/28 05:09:37;;;;;;;6.53;2.00;;;7.80;97.90;;;;;;5034073;28;20083;-48
2021/11/28 05:12:03;;;;;;;8.63;2.00;;;7.80;97.90;;;;;;5031775;28;20353;-48
2021/11/28 05:14:28;;;;;;;1.85;1.75;;;7.80;97.90;;;;;;5032923;28;20038;-48
2021/11/28 05:16:54;;;;;;;5.95;1.70;;;7.80;97.90;;;;;;5033267;28;20445;-48
2021/11/28 05:19:19;;;;;;;4.55;2.33;;;7.80;97.90;;;;;;5032741;28;20499;-48
2021/11/28 05:21:45;;;;;;;3.55;1.83;;;7.80;97.90;;;;;;5032073;28;20418;-48
2021/11/28 05:24:11;;;;;;;3.65;1.65;;;7.80;97.90;;;;;;5033097;28;20496;-48
2021/11/28 05:26:37;;;;;;;5.63;2.20;;;7.80;97.90;;;;;;5033145;28;20045;-48
2021/11/28 05:29:04;;;;;;;8.27;2.10;;;7.80;97.90;;;;;;5032323;28;20108;-48
2021/11/28 05:31:29;;;;;;;4.95;2.45;;;7.80;97.80;;;;;;5013654;28;20026;-48
2021/11/28 05:33:55;;;;;;;2.65;1.88;;;7.80;97.80;;;;;;5024312;28;20037;-48
2021/11/28 05:36:21;;;;;;;4.20;2.13;;;7.80;97.90;;;;;;5031818;28;20441;-49
2021/11/28 05:38:47;;;;;;;3.83;2.30;;;7.80;97.80;;;;;;5033352;28;20033;-48
2021/11/28 05:41:13;;;;;;;3.45;2.30;;;7.80;97.80;;;;;;5031664;28;20175;-48
2021/11/28 05:43:42;;;;;;;3.53;2.03;;;7.80;97.90;;;;;;5033245;28;20057;-48
2021/11/28 05:46:08;;;;;;;3.55;2.35;;;7.80;97.90;;;;;;5032330;28;20453;-48
2021/11/28 05:48:34;;;;;;;4.50;2.67;;;7.80;97.90;;;;;;5022925;28;20042;-48
2021/11/28 05:51:01;;;;;;;7.22;2.17;;;7.80;97.90;;;;;;5020729;28;20344;-48
2021/11/28 05:53:27;;;;;;;6.40;2.03;;;7.80;97.90;;;;;;5021882;28;20461;-48
2021/11/28 05:55:54;;;;;;;7.05;2.47;;;7.80;97.90;;;;;;5012409;28;20476;-48
2021/11/28 05:58:20;;;;;;;7.10;2.35;;;7.80;97.90;;;;;;5012828;28;20034;-48
2021/11/28 06:00:46;;;;;;;5.38;2.75;;;7.80;97.90;;;;;;5013450;28;20465;-48
2021/11/28 06:03:11;;;;;;;4.13;2.38;;;7.80;97.90;;;;;;5022195;28;20153;-49
2021/11/28 06:05:39;;;;;;;8.02;2.15;;;7.80;97.90;;;;;;5021434;28;20278;-48
2021/11/28 06:08:05;;;;;;;2.78;1.70;;;7.80;97.80;;;;;;5024350;28;20049;-48
2021/11/28 06:10:30;;;;;;;4.38;2.08;;;7.80;97.90;;;;;;5031872;28;20091;-48
2021/11/28 06:12:56;;;;;;;5.50;1.98;;;7.80;97.90;;;;;;5032722;28;20065;-48
2021/11/28 06:15:22;;;;;;;4.28;2.22;;;7.80;97.90;;;;;;5031928;28;20030;-48
2021/11/28 06:17:47;;;;;;;3.88;2.25;;;7.80;97.90;;;;;;5008889;28;20029;-48
2021/11/28 06:20:13;;;;;;;3.70;2.08;;;7.80;97.90;;;;;;5026600;28;20025;-48
2021/11/28 06:22:38;;;;;;;9.15;2.80;;;7.80;98.00;;;;;;5032484;28;20312;-49
2021/11/28 06:25:05;;;;;;;5.32;2.05;;;7.80;97.90;;;;;;5031404;28;20029;-48
2021/11/28 06:27:30;;;;;;;5.72;1.75;;;7.80;97.90;;;;;;5031948;28;20516;-48
2021/11/28 06:29:56;;;;;;;3.17;2.03;;;7.80;97.90;;;;;;5030301;28;20096;-48
2021/11/28 06:32:22;;;;;;;3.42;2.15;;;7.80;97.90;;;;;;5032390;28;20457;-49
2021/11/28 06:34:47;;;;;;;3.38;2.00;;;7.80;97.90;;;;;;5031066;28;20183;-48
2021/11/28 06:37:13;;;;;;;3.65;2.20;;;7.80;97.90;;;;;;5031654;28;20033;-48
2021/11/28 06:39:39;;;;;;;4.93;2.75;;;7.80;97.90;;;;;;5014774;28;20064;-48
2021/11/28 06:42:05;;;;;;;2.92;2.20;;;7.80;98.00;;;;;;5012265;28;20479;-49
2021/11/28 06:44:31;;;;;;;4.57;2.00;;;7.80;97.90;;;;;;5012594;28;20022;-48
2021/11/28 06:46:56;;;;;;;3.28;2.58;;;7.80;98.00;;;;;;5012226;28;20029;-49
2021/11/28 06:49:26;;;;;;;3.08;2.05;;;7.90;98.30;;;;;;5017879;28;20022;-48
2021/11/28 06:51:55;;;;;;;2.75;2.17;;;7.80;97.90;;;;;;5013507;28;20041;-48
2021/11/28 06:54:23;;;;;;;3.55;2.60;;;7.80;97.90;;;;;;5018082;28;20384;-49
2021/11/28 06:56:49;;;;;;;4.47;2.30;;;7.90;98.00;;;;;;5020256;28;20451;-48
2021/11/28 06:59:16;;;;;;;3.60;2.22;;;7.80;98.00;;;;;;5031590;28;20025;-48
2021/11/28 07:01:41;;;;;;;4.28;2.35;;;7.80;98.00;;;;;;5016257;28;20026;-49
2021/11/28 07:04:07;;;;;;;6.78;2.03;;;7.80;98.00;;;;;;5017615;28;20033;-48
2021/11/28 07:06:32;;;;;;;9.68;2.65;;;7.80;98.00;;;;;;5027356;28;20038;-48
2021/11/28 07:08:58;;;;;;;13.18;2.55;;;7.80;98.00;;;;;;5030052;28;20036;-48
2021/11/28 07:11:23;;;;;;;4.85;2.67;;;7.80;98.10;;;;;;5013862;28;20581;-48
2021/11/28 07:13:50;;;;;;;3.38;2.40;;;7.80;98.00;;;;;;5028189;28;20034;-48
2021/11/28 07:16:17;;;;;;;5.07;2.72;;;7.80;98.00;;;;;;5018908;28;20461;-48
2021/11/28 07:18:44;;;;;;;2.10;1.90;;;7.80;98.00;;;;;;5014900;28;20034;-48
2021/11/28 07:21:12;;;;;;;4.20;2.40;;;7.80;98.00;;;;;;5023795;28;20022;-48
2021/11/28 07:23:38;;;;;;;3.40;2.28;;;7.90;98.40;;;;;;5015420;28;20026;-48
2021/11/28 07:26:05;;;;;;;3.22;2.42;;;7.80;98.00;;;;;;5010819;28;20505;-48
2021/11/28 07:28:30;;;;;;;3.40;2.22;;;7.80;98.10;;;;;;5020536;28;20037;-48
2021/11/28 07:30:56;;;;;;;6.30;2.55;;;7.90;98.10;;;;;;5031449;28;20028;-48
2021/11/28 07:33:22;;;;;;;4.43;2.67;;;7.90;98.10;;;;;;5031382;28;20108;-48
2021/11/28 07:35:47;;;;;;;4.65;2.80;;;7.80;98.00;;;;;;5028949;28;20030;-48
2021/11/28 07:38:13;;;;;;;3.00;2.30;;;7.80;98.00;;;;;;5029393;28;20029;-48
2021/11/28 07:40:38;;;;;;;4.15;3.00;;;7.80;98.00;;;;;;5030907;28;20041;-48
2021/11/28 07:43:04;;;;;;;5.47;3.38;;;7.80;98.40;;;;;;5031097;28;20360;-49
2021/11/28 07:45:30;;;;;;;3.97;2.78;;;7.80;98.00;;;;;;5018853;28;20083;-48
2021/11/28 07:47:56;;;;;;;6.68;3.10;;;7.90;98.10;;;;;;5017678;28;20021;-48
2021/11/28 07:50:22;;;;;;;8.05;3.42;;;7.90;98.10;;;;;;5017358;28;20049;-48
2021/11/28 07:52:48;;;;;;;11.02;4.63;;;7.90;98.10;;;;;;5011007;28;20061;-48
2021/11/28 07:55:13;;;;;;;19.25;7.57;;;7.80;98.10;;;;;;5010825;28;20139;-48
2021/11/28 07:57:39;;;;;;;10.40;5.32;;;7.80;98.00;;;;;;5012079;28;20084;-48
2021/11/28 08:00:06;;;;;;;7.63;4.00;;;7.80;98.10;;;;;;5011108;28;20720;-48
2021/11/28 08:02:31;;;;;;;6.35;2.92;;;7.90;98.10;;;;;;5016687;28;20025;-48
2021/11/28 08:04:57;;;;;;;6.00;3.75;;;7.90;98.10;;;;;;5025371;28;20108;-48
2021/11/28 08:07:22;;;;;;;3.75;2.85;;;7.90;98.10;;;;;;5017833;28;20061;-48
2021/11/28 08:09:48;;;;;;;5.10;2.90;;;7.80;98.40;;;;;;5010665;28;20029;-49
2021/11/28 08:12:14;;;;;;;9.18;3.28;;;7.90;98.20;;;;;;5015680;28;20037;-48
2021/11/28 08:14:40;;;;;;;6.07;2.42;;;7.90;98.10;;;;;;5020840;28;20071;-48
2021/11/28 08:17:07;;;;;;;4.75;2.50;;;7.90;98.20;;;;;;5017869;28;20038;-48
2021/11/28 08:19:32;;;;;;;4.57;2.65;;;7.90;98.10;;;;;;5016781;28;20030;-49
2021/11/28 08:21:59;;;;;;;5.43;3.08;;;7.90;98.20;;;;;;5020527;28;20152;-48
2021/11/28 08:24:25;;;;;;;6.88;2.90;;;7.90;98.10;;;;;;5018368;28;20046;-48
2021/11/28 08:26:51;;;;;;;4.85;2.67;;;7.90;98.10;;;;;;5019993;28;20025;-48
2021/11/28 08:29:16;;;;;;;4.22;2.67;;;7.90;98.10;;;;;;5023829;28;20360;-49
2021/11/28 08:31:42;;;;;;;5.70;2.90;;;7.90;98.20;;;;;;5031269;28;20099;-48
2021/11/28 08:34:08;;;;;;;5.28;2.80;;;7.90;98.20;;;;;;5025444;28;20568;-48
2021/11/28 08:36:33;;;;;;;9.18;3.00;;;7.90;98.10;;;;;;5033526;28;20026;-48
2021/11/28 08:38:59;;;;;;;8.23;3.83;;;7.90;98.10;;;;;;5022325;28;20018;-48
2021/11/28 08:41:27;;;;;;;4.40;2.83;;;7.90;98.10;;;;;;5014086;28;20029;-48
2021/11/28 08:43:55;;;;;;;6.85;3.08;;;7.90;98.20;;;;;;5014920;28;20337;-48
2021/11/28 08:46:21;;;;;;;9.35;4.78;;;7.90;98.20;;;;;;5018464;28;20033;-48
2021/11/28 08:48:48;;;;;;;6.60;3.03;;;7.90;98.20;;;;;;5016907;28;20471;-48
2021/11/28 08:51:14;;;;;;;4.07;2.10;;;7.90;98.20;;;;;;5028081;28;20029;-48
2021/11/28 08:53:40;;;;;;;4.07;2.45;;;7.90;98.20;;;;;;5026899;28;20487;-48
2021/11/28 08:56:06;;;;;;;7.30;3.03;;;7.90;98.20;;;;;;5012906;28;20030;-48
2021/11/28 08:58:32;;;;;;;2.35;2.05;;;7.90;98.20;;;;;;5040023;28;20511;-48
2021/11/28 09:00:58;;;;;;;5.88;3.28;;;7.90;98.20;;;;;;5042302;28;20029;-48
2021/11/28 09:03:24;;;;;;;3.65;2.53;;;7.90;98.50;;;;;;5042089;28;20282;-48
2021/11/28 09:05:49;;;;;;;4.15;3.42;;;7.90;98.20;;;;;;5030906;28;20064;-48
2021/11/28 09:08:17;;;;;;;3.75;2.67;;;8.00;98.20;;;;;;5042111;28;20128;-48
2021/11/28 09:10:43;;;;;;;5.00;3.25;;;8.00;98.20;;;;;;5043239;28;20499;-48
2021/11/28 09:13:10;;;;;;;3.80;2.55;;;8.00;98.20;;;;;;5036460;28;20559;-48
2021/11/28 09:15:36;;;;;;;5.20;2.47;;;8.00;98.20;;;;;;5041696;28;20040;-48
2021/11/28 09:18:07;;;;;;;6.72;3.08;;;8.00;98.20;;;;;;5033249;28;20025;-48
2021/11/28 09:20:34;;;;;;;5.03;3.10;;;8.00;98.20;;;;;;5038721;28;20032;-48
2021/11/28 09:25:30;;;;;;;3.35;2.55;;;8.00;98.30;;;;;;5036790;28;20464;-48
2021/11/28 09:27:57;;;;;;;3.85;2.55;;;8.00;98.20;;;;;;5048022;28;20059;-48
2021/11/28 09:30:24;;;;;;;5.90;3.22;;;8.00;98.30;;;;;;5017963;28;20104;-48
2021/11/28 09:32:52;;;;;;;4.28;3.20;;;8.00;98.20;;;;;;5045945;28;20041;-48
2021/11/28 09:35:18;;;;;;;5.97;3.03;;;8.00;98.60;;;;;;5038315;28;20089;-48
2021/11/28 09:37:44;;;;;;;8.18;3.08;;;8.00;98.30;;;;;;5042755;28;20026;-49
2021/11/28 09:40:09;;;;;;;3.03;2.25;;;8.00;98.30;;;;;;5040485;28;20021;-48
2021/11/28 09:42:39;;;;;;;9.05;2.63;;;8.00;98.20;;;;;;5048625;28;20032;-48
2021/11/28 09:45:07;;;;;;;5.07;2.25;;;8.10;98.30;;;;;;5038753;28;20032;-49
2021/11/28 09:47:34;;;;;;;5.80;2.28;;;8.10;98.30;;;;;;5029787;28;20214;-49
2021/11/28 09:50:03;;;;;;;6.18;2.92;;;8.10;98.30;;;;;;5041710;28;20034;-49
2021/11/28 09:52:30;;;;;;;4.47;2.37;;;8.00;98.30;;;;;;5036599;28;20052;-48
2021/11/28 09:54:58;;;;;;;3.00;2.28;;;8.10;98.30;;;;;;5042932;28;20124;-48
2021/11/28 09:57:24;;;;;;;3.75;2.47;;;8.10;98.30;;;;;;5046414;28;20104;-48
2021/11/28 09:59:52;;;;;;;3.72;2.45;;;8.10;98.30;;;;;;5035445;28;20120;-48
2021/11/28 10:02:26;;;;;;;5.00;2.45;;;8.10;98.30;;;;;;5047645;28;20452;-48
2021/11/28 10:04:54;;;;;;;7.72;2.75;;;8.10;98.30;;;;;;5037959;28;20036;-48
2021/11/28 10:07:20;;;;;;;4.70;3.00;;;8.10;98.30;;;;;;5035596;28;20099;-48
2021/11/28 10:09:47;;;;;;;5.28;3.08;;;8.10;98.30;;;;;;5048146;28;20049;-48
2021/11/28 10:12:20;;;;;;;4.45;2.80;;;8.10;98.40;;;;;;5034784;28;20076;-48
2021/11/28 10:14:49;;;;;;;5.13;2.47;;;8.10;98.40;;;;;;5031788;28;20022;-49
2021/11/28 10:17:17;;;;;;;8.25;2.95;;;8.10;98.30;;;;;;5015603;28;20030;-48
2021/11/28 10:19:44;;;;;;;6.10;2.75;;;8.20;98.40;;;;;;5032072;28;20056;-49
2021/11/28 10:22:10;;;;;;;4.57;2.80;;;8.20;98.40;;;;;;5035857;28;20108;-48
2021/11/28 10:24:47;;;;;;;6.07;3.17;;;8.10;98.70;;;;;;5038122;28;20471;-48
2021/11/28 10:27:13;;;;;;;3.42;2.72;;;8.20;98.40;;;;;;5039920;28;20025;-48
2021/11/28 10:29:41;;;;;;;5.18;2.67;;;8.20;98.40;;;;;;5047960;28;20036;-48
2021/11/28 10:32:09;;;;;;;7.53;2.85;;;8.20;98.40;;;;;;5033887;28;20033;-48
2021/11/28 10:34:47;;;;;;;5.50;2.65;;;8.20;98.50;;;;;;5036163;28;20061;-48
2021/11/28 10:37:16;;;;;;;4.63;2.33;;;8.20;98.50;;;;;;5032897;28;20060;-49
2021/11/28 10:39:49;;;;;;;7.78;2.90;;;8.20;98.50;;;;;;5047077;28;20496;-48
2021/11/28 10:42:20;;;;;;;4.40;3.30;;;8.20;98.80;;;;;;5034822;28;20029;-48
2021/11/28 10:45:07;;;;;;;3.13;2.20;;;8.20;98.40;;;;;;5039933;28;20066;-49
2021/11/28 10:47:44;;;;;;;3.15;2.00;;;8.20;98.40;;;;;;5030179;28;20026;-48
2021/11/28 10:50:33;;;;;;;4.13;2.28;;;8.20;98.40;;;;;;5017793;28;20033;-49
2021/11/28 10:53:15;;;;;;;2.47;1.77;;;8.20;98.40;;;;;;5028907;28;20146;-48
2021/11/28 10:55:49;;;;;;;5.22;2.35;;;8.30;98.30;;;;;;5047083;28;20029;-49
2021/11/28 10:58:20;;;;;;;3.67;2.38;;;8.30;98.40;;;;;;5029496;28;20064;-49
2021/11/28 11:00:46;;;;;;;6.35;2.97;;;8.30;98.30;;;;;;5039644;28;20110;-48
2021/11/28 11:03:23;;;;;;;4.72;2.75;;;8.30;98.40;;;;;;5045633;28;20048;-49
2021/11/28 11:05:51;;;;;;;5.47;2.85;;;8.30;98.40;;;;;;5031897;28;20372;-48
2021/11/28 11:08:23;;;;;;;4.65;2.67;;;8.30;98.40;;;;;;5038815;28;20131;-48
2021/11/28 11:11:02;;;;;;;6.18;3.35;;;8.30;98.50;;;;;;5040399;28;20490;-48
2021/11/28 11:13:27;;;;;;;4.15;2.20;;;8.30;98.40;;;;;;5045653;28;20044;-48
2021/11/28 11:15:53;;;;;;;5.13;2.60;;;8.30;98.50;;;;;;5032177;28;20424;-48
2021/11/28 11:18:21;;;;;;;3.95;2.33;;;8.30;98.50;;;;;;5044997;28;20080;-48
2021/11/28 11:20:49;;;;;;;4.32;2.28;;;8.30;98.50;;;;;;5035561;28;20099;-49
2021/11/28 11:23:39;;;;;;;2.92;1.90;;;8.30;98.50;;;;;;5042345;28;20017;-49
2021/11/28 11:26:23;;;;;;;3.47;2.28;;;8.30;98.50;;;;;;5027506;28;20061;-48
2021/11/28 11:29:10;;;;;;;4.95;2.30;;;8.30;98.50;;;;;;5029134;28;20155;-48
2021/11/28 11:31:36;;;;;;;3.05;1.75;;;8.30;98.50;;;;;;5035732;28;20037;-48
2021/11/28 11:34:18;;;;;;;3.35;2.10;;;8.30;98.50;;;;;;5036926;28;20514;-48
2021/11/28 11:36:54;;;;;;;4.85;2.13;;;8.30;98.50;;;;;;5029491;28;20136;-49
2021/11/28 11:39:21;;;;;;;5.90;2.45;;;8.30;98.20;;;;;;5043916;28;20496;-48
2021/11/28 11:41:47;;;;;;;4.63;2.92;;;8.30;98.10;;;;;;5033485;28;20124;-48
2021/11/28 11:44:16;;;;;;;5.65;2.92;;;8.30;98.10;;;;;;5037168;28;20189;-48
2021/11/28 11:46:45;;;;;;;3.95;2.20;;;8.30;97.90;;;;;;5030076;28;20040;-48
2021/11/28 11:49:13;;;;;;;3.67;1.85;;;8.30;97.80;;;;;;5040632;28;20029;-48
2021/11/28 11:51:39;;;;;;;5.10;3.08;;;8.30;97.90;;;;;;5034480;28;20371;-48
2021/11/28 11:54:05;;;;;;;3.70;2.28;;;8.30;97.70;;;;;;5033573;28;20025;-49
2021/11/28 11:56:32;;;;;;;3.55;2.13;;;8.30;97.80;;;;;;5036072;28;20397;-48
2021/11/28 11:59:16;;;;;;;2.65;1.83;;;8.30;97.90;;;;;;5039212;28;20372;-48
2021/11/28 12:01:43;;;;;;;4.05;2.20;;;8.30;98.00;;;;;;5042996;28;20112;-48
2021/11/28 12:04:09;;;;;;;5.05;1.70;;;8.30;97.90;;;;;;5041680;28;20014;-49
2021/11/28 12:06:56;;;;;;;5.15;2.50;;;8.40;97.80;;;;;;5025460;28;20033;-48
2021/11/28 12:09:23;;;;;;;3.20;2.10;;;8.40;97.90;;;;;;5024000;28;20361;-48
2021/11/28 12:11:56;;;;;;;3.78;2.00;;;8.40;97.90;;;;;;5045738;28;20033;-49
2021/11/28 12:14:21;;;;;;;5.97;2.72;;;8.40;97.90;;;;;;5037052;28;20029;-48
2021/11/28 12:16:47;;;;;;;9.23;2.83;;;8.40;97.80;;;;;;5037464;28;20029;-49
2021/11/28 12:19:36;;;;;;;8.15;2.17;;;8.40;98.00;;;;;;5036446;28;20095;-48
2021/11/28 12:22:02;;;;;;;3.63;1.83;;;8.40;98.00;;;;;;5038733;28;20112;-48
2021/11/28 12:24:31;;;;;;;4.13;1.83;;;8.40;98.00;;;;;;5036403;28;20100;-48
2021/11/28 12:27:02;;;;;;;3.55;2.03;;;8.40;97.90;;;;;;5037565;28;20078;-48
2021/11/28 12:29:36;;;;;;;3.35;2.03;;;8.40;97.90;;;;;;5034615;28;20034;-49
2021/11/28 12:32:14;;;;;;;2.92;1.83;;;8.40;98.00;;;;;;5043386;28;20033;-48
2021/11/28 12:34:46;;;;;;;3.85;2.00;;;8.40;98.00;;;;;;5035464;28;20025;-48
2021/11/28 12:37:30;;;;;;;8.23;2.60;;;8.40;98.00;;;;;;5035044;28;20057;-48
2021/11/28 12:40:17;;;;;;;4.45;2.10;;;8.40;98.00;;;;;;5032237;28;20033;-48
2021/11/28 12:42:43;;;;;;;4.63;2.33;;;8.40;98.00;;;;;;5043625;28;20070;-48
2021/11/28 12:45:09;;;;;;;3.95;2.55;;;8.40;98.00;;;;;;5031710;28;20033;-49
2021/11/28 12:47:35;;;;;;;5.97;2.35;;;8.40;98.10;;;;;;5039173;28;20025;-48
2021/11/28 12:50:14;;;;;;;4.32;2.70;;;8.40;98.00;;;;;;5040330;28;20057;-48
2021/11/28 12:52:42;;;;;;;3.67;2.58;;;8.40;98.00;;;;;;5014005;28;20469;-49
2021/11/28 12:55:20;;;;;;;5.63;3.15;;;8.40;98.10;;;;;;5026590;28;20037;-48
2021/11/28 12:58:05;;;;;;;4.57;2.78;;;8.40;98.10;;;;;;5045231;28;20460;-49
2021/11/28 13:00:40;;;;;;;4.50;2.60;;;8.40;98.10;;;;;;5033318;28;20037;-48
2021/11/28 13:03:07;;;;;;;4.00;1.92;;;8.40;98.10;;;;;;5044052;28;20103;-48
2021/11/28 13:05:47;;;;;;;5.30;1.90;;;8.40;98.10;;;;;;5018125;28;20071;-48
2021/11/28 13:08:12;;;;;;;5.88;2.22;;;8.50;98.10;;;;;;5030469;28;20048;-48